sensor_id;sensor_type;location;lat;lon;timestamp;pressure;altitude;pressure_sealevel;temperature;humidity
69257;BME280;56376;53.356;-1.748;2023-07-02T00:01:11;98758.09;;;13.73;100.00
69257;BME280;56376;53.356;-1.748;2023-07-02T00:03:37;98763.44;;;13.72;100.00
69257;BME280;56376;53.356;-1.748;2023-07-02T00:06:03;98756.97;;;13.77;100.00
69257;BME280;56376;53.356;-1.748;2023-07-02T00:08:28;98758.00;;;13.75;100.00
69257;BME280;56376;53.356;-1.748;2023-07-02T00:10:54;98764.28;;;13.72;100.00
69257;BME280;56376;53.356;-1.748;2023-07-02T00:13:19;98760.06;;;13.70;100.00
69257;BME280;56376;53.356;-1.748;2023-07-02T00:15:45;98765.50;;;13.67;100.00
69257;BME280;56376;53.356;-1.748;2023-07-02T00:18:10;98762.06;;;13.66;100.00
69257;BME280;56376;53.356;-1.748;2023-07-02T00:20:41;98760.34;;;13.65;100.00
69257;BME280;56376;53.356;-1.748;2023-07-02T00:23:06;98764.75;;;13.64;100.00
69257;BME280;56376;53.356;-1.748;2023-07-02T00:25:34;98770.84;;;13.65;100.00
69257;BME280;56376;53.356;-1.748;2023-07-02T00:27:59;98764.69;;;13.66;100.00
69257;BME280;56376;53.356;-1.748;2023-07-02T00:30:25;98759.59;;;13.63;100.00
69257;BME280;56376;53.356;-1.748;2023-07-02T00:32:50;98753.50;;;13.62;100.00
69257;BME280;56376;53.356;-1.748;2023-07-02T00:35:16;98754.47;;;13.61;100.00
69257;BME280;56376;53.356;-1.748;2023-07-02T00:37:41;98762.22;;;13.63;100.00
69257;BME280;56376;53.356;-1.748;2023-07-02T00:40:07;98749.09;;;13.63;100.00
69257;BME280;56376;53.356;-1.748;2023-07-02T00:42:32;98750.81;;;13.64;100.00
69257;BME280;56376;53.356;-1.748;2023-07-02T00:44:58;98748.19;;;13.64;100.00
69257;BME280;56376;53.356;-1.748;2023-07-02T00:47:28;98747.41;;;13.62;100.00
69257;BME280;56376;53.356;-1.748;2023-07-02T00:49:54;98752.88;;;13.59;100.00
69257;BME280;56376;53.356;-1.748;2023-07-02T00:52:19;98760.72;;;13.59;100.00
69257;BME280;56376;53.356;-1.748;2023-07-02T00:54:46;98758.38;;;13.54;100.00
69257;BME280;56376;53.356;-1.748;2023-07-02T00:57:11;98758.47;;;13.53;100.00
69257;BME280;56376;53.356;-1.748;2023-07-02T00:59:36;98757.63;;;13.52;100.00
69257;BME280;56376;53.356;-1.748;2023-07-02T01:02:04;98752.31;;;13.54;100.00
69257;BME280;56376;53.356;-1.748;2023-07-02T01:04:30;98758.47;;;13.53;100.00
69257;BME280;56376;53.356;-1.748;2023-07-02T01:06:56;98753.34;;;13.51;100.00
69257;BME280;56376;53.356;-1.748;2023-07-02T01:09:25;98758.56;;;13.51;100.00
69257;BME280;56376;53.356;-1.748;2023-07-02T01:11:57;98751.75;;;13.49;100.00
69257;BME280;56376;53.356;-1.748;2023-07-02T01:14:38;98750.78;;;13.50;100.00
69257;BME280;56376;53.356;-1.748;2023-07-02T01:17:06;98766.53;;;13.50;100.00
69257;BME280;56376;53.356;-1.748;2023-07-02T01:19:53;98762.03;;;13.52;100.00
69257;BME280;56376;53.356;-1.748;2023-07-02T01:22:24;98758.56;;;13.51;100.00
69257;BME280;56376;53.356;-1.748;2023-07-02T01:24:51;98750.91;;;13.48;100.00
69257;BME280;56376;53.356;-1.748;2023-07-02T01:27:17;98762.41;;;13.46;100.00
69257;BME280;56376;53.356;-1.748;2023-07-02T01:29:43;98768.59;;;13.45;100.00
69257;BME280;56376;53.356;-1.748;2023-07-02T01:32:12;98759.88;;;13.44;100.00
69257;BME280;56376;53.356;-1.748;2023-07-02T01:34:38;98766.06;;;13.43;100.00
69257;BME280;56376;53.356;-1.748;2023-07-02T01:37:04;98763.44;;;13.43;100.00
69257;BME280;56376;53.356;-1.748;2023-07-02T01:39:30;98765.13;;;13.44;100.00
69257;BME280;56376;53.356;-1.748;2023-07-02T01:42:08;98765.22;;;13.42;100.00
69257;BME280;56376;53.356;-1.748;2023-07-02T01:44:33;98773.94;;;13.43;100.00
69257;BME280;56376;53.356;-1.748;2023-07-02T01:46:59;98783.50;;;13.44;100.00
69257;BME280;56376;53.356;-1.748;2023-07-02T01:49:24;98773.25;;;13.39;100.00
69257;BME280;56376;53.356;-1.748;2023-07-02T01:51:54;98781.91;;;13.41;100.00
69257;BME280;56376;53.356;-1.748;2023-07-02T01:54:21;98780.19;;;13.40;100.00
69257;BME280;56376;53.356;-1.748;2023-07-02T01:56:46;98779.72;;;13.34;100.00
69257;BME280;56376;53.356;-1.748;2023-07-02T01:59:12;98779.63;;;13.35;100.00
69257;BME280;56376;53.356;-1.748;2023-07-02T02:01:38;98777.00;;;13.35;100.00
69257;BME280;56376;53.356;-1.748;2023-07-02T02:04:07;98781.50;;;13.33;100.00
69257;BME280;56376;53.356;-1.748;2023-07-02T02:06:33;98779.06;;;13.30;100.00
69257;BME280;56376;53.356;-1.748;2023-07-02T02:08:59;98775.59;;;13.30;100.00
69257;BME280;56376;53.356;-1.748;2023-07-02T02:11:24;98783.47;;;13.30;100.00
69257;BME280;56376;53.356;-1.748;2023-07-02T02:13:50;98776.78;;;13.24;100.00
69257;BME280;56376;53.356;-1.748;2023-07-02T02:16:15;98775.94;;;13.24;100.00
69257;BME280;56376;53.356;-1.748;2023-07-02T02:18:41;98769.94;;;13.21;100.00
69257;BME280;56376;53.356;-1.748;2023-07-02T02:21:06;98777.88;;;13.20;100.00
69257;BME280;56376;53.356;-1.748;2023-07-02T02:23:32;98773.31;;;13.24;100.00
69257;BME280;56376;53.356;-1.748;2023-07-02T02:25:57;98773.31;;;13.24;100.00
69257;BME280;56376;53.356;-1.748;2023-07-02T02:28:22;98779.59;;;13.21;100.00
69257;BME280;56376;53.356;-1.748;2023-07-02T02:30:48;98783.22;;;13.18;100.00
69257;BME280;56376;53.356;-1.748;2023-07-02T02:33:13;98785.16;;;13.15;100.00
69257;BME280;56376;53.356;-1.748;2023-07-02T02:35:38;98780.94;;;13.12;100.00
69257;BME280;56376;53.356;-1.748;2023-07-02T02:38:04;98777.50;;;13.12;100.00
69257;BME280;56376;53.356;-1.748;2023-07-02T02:40:30;98786.19;;;13.12;100.00
69257;BME280;56376;53.356;-1.748;2023-07-02T02:42:55;98794.75;;;13.16;100.00
69257;BME280;56376;53.356;-1.748;2023-07-02T02:45:20;98795.09;;;13.10;100.00
69257;BME280;56376;53.356;-1.748;2023-07-02T02:47:46;98795.19;;;13.08;100.00
69257;BME280;56376;53.356;-1.748;2023-07-02T02:50:12;98794.31;;;13.08;100.00
69257;BME280;56376;53.356;-1.748;2023-07-02T02:52:38;98794.31;;;13.08;100.00
69257;BME280;56376;53.356;-1.748;2023-07-02T02:55:05;98798.72;;;13.07;100.00
69257;BME280;56376;53.356;-1.748;2023-07-02T02:57:31;98788.63;;;13.01;100.00
69257;BME280;56376;53.356;-1.748;2023-07-02T02:59:57;98791.03;;;13.04;100.00
69257;BME280;56376;53.356;-1.748;2023-07-02T03:02:22;98790.88;;;13.07;100.00
69257;BME280;56376;53.356;-1.748;2023-07-02T03:04:47;98796.03;;;13.09;100.00
69257;BME280;56376;53.356;-1.748;2023-07-02T03:07:14;98787.13;;;13.11;100.00
69257;BME280;56376;53.356;-1.748;2023-07-02T03:09:40;98770.66;;;13.09;100.00
69257;BME280;56376;53.356;-1.748;2023-07-02T03:12:05;98773.53;;;13.05;100.00
69257;BME280;56376;53.356;-1.748;2023-07-02T03:14:31;98769.13;;;13.05;100.00
69257;BME280;56376;53.356;-1.748;2023-07-02T03:16:56;98788.34;;;13.06;100.00
69257;BME280;56376;53.356;-1.748;2023-07-02T03:19:22;98780.47;;;13.06;100.00
69257;BME280;56376;53.356;-1.748;2023-07-02T03:21:47;98786.63;;;13.05;100.00
69257;BME280;56376;53.356;-1.748;2023-07-02T03:24:13;98777.00;;;13.05;100.00
69257;BME280;56376;53.356;-1.748;2023-07-02T03:26:40;98783.25;;;13.03;100.00
69257;BME280;56376;53.356;-1.748;2023-07-02T03:29:06;98782.53;;;13.01;100.00
69257;BME280;56376;53.356;-1.748;2023-07-02T03:31:31;98782.59;;;12.99;100.00
69257;BME280;56376;53.356;-1.748;2023-07-02T03:33:57;98787.00;;;12.98;100.00
69257;BME280;56376;53.356;-1.748;2023-07-02T03:36:22;98780.06;;;12.97;100.00
69257;BME280;56376;53.356;-1.748;2023-07-02T03:38:48;98794.03;;;12.98;100.00
69257;BME280;56376;53.356;-1.748;2023-07-02T03:41:13;98793.16;;;12.97;100.00
69257;BME280;56376;53.356;-1.748;2023-07-02T03:43:38;98787.94;;;12.97;100.00
69257;BME280;56376;53.356;-1.748;2023-07-02T03:46:04;98778.56;;;12.93;100.00
69257;BME280;56376;53.356;-1.748;2023-07-02T03:48:29;98787.28;;;12.94;100.00
69257;BME280;56376;53.356;-1.748;2023-07-02T03:50:54;98788.94;;;12.95;100.00
69257;BME280;56376;53.356;-1.748;2023-07-02T03:53:20;98801.41;;;12.91;100.00
69257;BME280;56376;53.356;-1.748;2023-07-02T03:55:45;98791.09;;;12.88;100.00
69257;BME280;56376;53.356;-1.748;2023-07-02T03:58:11;98789.38;;;12.87;100.00
69257;BME280;56376;53.356;-1.748;2023-07-02T04:00:36;98791.00;;;12.90;100.00
69257;BME280;56376;53.356;-1.748;2023-07-02T04:03:01;98783.88;;;12.92;100.00
69257;BME280;56376;53.356;-1.748;2023-07-02T04:05:27;98790.91;;;12.91;100.00
69257;BME280;56376;53.356;-1.748;2023-07-02T04:07:53;98793.34;;;12.94;100.00
69257;BME280;56376;53.356;-1.748;2023-07-02T04:10:18;98794.38;;;12.92;100.00
69257;BME280;56376;53.356;-1.748;2023-07-02T04:12:43;98786.63;;;12.90;100.00
69257;BME280;56376;53.356;-1.748;2023-07-02T04:15:09;98788.28;;;12.91;100.00
69257;BME280;56376;53.356;-1.748;2023-07-02T04:17:35;98789.13;;;12.92;100.00
69257;BME280;56376;53.356;-1.748;2023-07-02T04:20:01;98797.84;;;12.92;100.00
69257;BME280;56376;53.356;-1.748;2023-07-02T04:22:29;98783.13;;;12.90;100.00
69257;BME280;56376;53.356;-1.748;2023-07-02T04:24:54;98783.22;;;12.88;100.00
69257;BME280;56376;53.356;-1.748;2023-07-02T04:27:19;98782.22;;;12.91;100.00
69257;BME280;56376;53.356;-1.748;2023-07-02T04:29:45;98789.06;;;12.93;100.00
69257;BME280;56376;53.356;-1.748;2023-07-02T04:32:10;98789.13;;;12.92;100.00
69257;BME280;56376;53.356;-1.748;2023-07-02T04:34:36;98789.25;;;12.90;100.00
69257;BME280;56376;53.356;-1.748;2023-07-02T04:37:04;98783.81;;;12.93;100.00
69257;BME280;56376;53.356;-1.748;2023-07-02T04:39:30;98786.44;;;12.93;100.00
69257;BME280;56376;53.356;-1.748;2023-07-02T04:41:56;98789.91;;;12.94;100.00
69257;BME280;56376;53.356;-1.748;2023-07-02T04:44:21;98791.69;;;12.93;100.00
69257;BME280;56376;53.356;-1.748;2023-07-02T04:47:00;98789.25;;;12.90;100.00
69257;BME280;56376;53.356;-1.748;2023-07-02T04:49:26;98788.47;;;12.88;100.00
69257;BME280;56376;53.356;-1.748;2023-07-02T04:51:51;98795.56;;;12.86;100.00
69257;BME280;56376;53.356;-1.748;2023-07-02T04:54:21;98799.97;;;12.86;100.00
69257;BME280;56376;53.356;-1.748;2023-07-02T04:56:47;98795.66;;;12.85;100.00
69257;BME280;56376;53.356;-1.748;2023-07-02T04:59:14;98800.06;;;12.84;100.00
69257;BME280;56376;53.356;-1.748;2023-07-02T05:01:40;98804.19;;;12.88;100.00
69257;BME280;56376;53.356;-1.748;2023-07-02T05:04:05;98795.50;;;12.88;100.00
69257;BME280;56376;53.356;-1.748;2023-07-02T05:06:31;98794.63;;;12.87;100.00
69257;BME280;56376;53.356;-1.748;2023-07-02T05:08:56;98799.16;;;12.85;100.00
69257;BME280;56376;53.356;-1.748;2023-07-02T05:11:22;98799.97;;;12.86;100.00
69257;BME280;56376;53.356;-1.748;2023-07-02T05:13:47;98790.34;;;12.86;100.00
69257;BME280;56376;53.356;-1.748;2023-07-02T05:16:13;98797.34;;;12.86;100.00
69257;BME280;56376;53.356;-1.748;2023-07-02T05:18:39;98792.97;;;12.86;100.00
69257;BME280;56376;53.356;-1.748;2023-07-02T05:21:04;98786.03;;;12.85;100.00
69257;BME280;56376;53.356;-1.748;2023-07-02T05:23:29;98785.94;;;12.87;100.00
69257;BME280;56376;53.356;-1.748;2023-07-02T05:25:55;98795.56;;;12.86;100.00
69257;BME280;56376;53.356;-1.748;2023-07-02T05:28:20;98812.97;;;12.87;100.00
69257;BME280;56376;53.356;-1.748;2023-07-02T05:30:45;98812.97;;;12.87;100.00
69257;BME280;56376;53.356;-1.748;2023-07-02T05:33:11;98802.78;;;12.83;100.00
69257;BME280;56376;53.356;-1.748;2023-07-02T05:35:36;98811.66;;;12.80;100.00
69257;BME280;56376;53.356;-1.748;2023-07-02T05:38:02;98802.19;;;12.77;100.00
69257;BME280;56376;53.356;-1.748;2023-07-02T05:40:27;98816.16;;;12.78;100.00
69257;BME280;56376;53.356;-1.748;2023-07-02T05:42:52;98819.78;;;12.75;100.00
69257;BME280;56376;53.356;-1.748;2023-07-02T05:45:18;98825.28;;;12.71;100.00
69257;BME280;56376;53.356;-1.748;2023-07-02T05:47:44;98818.25;;;12.71;100.00
69257;BME280;56376;53.356;-1.748;2023-07-02T05:50:09;98826.88;;;12.73;100.00
69257;BME280;56376;53.356;-1.748;2023-07-02T05:52:35;98820.88;;;12.71;100.00
69257;BME280;56376;53.356;-1.748;2023-07-02T05:55:00;98826.78;;;12.75;100.00
69257;BME280;56376;53.356;-1.748;2023-07-02T05:57:26;98830.25;;;12.75;100.00
69257;BME280;56376;53.356;-1.748;2023-07-02T05:59:51;98834.63;;;12.75;100.00
69257;BME280;56376;53.356;-1.748;2023-07-02T06:02:16;98834.06;;;12.70;100.00
69257;BME280;56376;53.356;-1.748;2023-07-02T06:04:43;98830.59;;;12.69;100.00
69257;BME280;56376;53.356;-1.748;2023-07-02T06:07:09;98818.63;;;12.65;100.00
69257;BME280;56376;53.356;-1.748;2023-07-02T06:09:34;98831.78;;;12.64;100.00
69257;BME280;56376;53.356;-1.748;2023-07-02T06:12:00;98821.31;;;12.64;100.00
69257;BME280;56376;53.356;-1.748;2023-07-02T06:14:25;98824.69;;;12.66;100.00
69257;BME280;56376;53.356;-1.748;2023-07-02T06:16:52;98829.81;;;12.67;100.00
69257;BME280;56376;53.356;-1.748;2023-07-02T06:19:17;98843.94;;;12.65;100.00
69257;BME280;56376;53.356;-1.748;2023-07-02T06:21:43;98844.81;;;12.65;100.00
69257;BME280;56376;53.356;-1.748;2023-07-02T06:24:08;98825.78;;;12.62;100.00
69257;BME280;56376;53.356;-1.748;2023-07-02T06:26:34;98838.97;;;12.60;100.00
69257;BME280;56376;53.356;-1.748;2023-07-02T06:28:59;98840.59;;;12.63;100.00
69257;BME280;56376;53.356;-1.748;2023-07-02T06:31:25;98843.28;;;12.61;100.00
69257;BME280;56376;53.356;-1.748;2023-07-02T06:33:50;98841.75;;;12.57;100.00
69257;BME280;56376;53.356;-1.748;2023-07-02T06:36:16;98845.31;;;12.56;100.00
69257;BME280;56376;53.356;-1.748;2023-07-02T06:38:43;98847.00;;;12.57;100.00
69257;BME280;56376;53.356;-1.748;2023-07-02T06:41:08;98846.16;;;12.56;100.00
69257;BME280;56376;53.356;-1.748;2023-07-02T06:43:34;98840.72;;;12.60;100.00
69257;BME280;56376;53.356;-1.748;2023-07-02T06:45:59;98844.28;;;12.59;100.00
69257;BME280;56376;53.356;-1.748;2023-07-02T06:48:25;98849.28;;;12.63;100.00
69257;BME280;56376;53.356;-1.748;2023-07-02T06:50:50;98852.91;;;12.61;100.00
69257;BME280;56376;53.356;-1.748;2023-07-02T06:53:15;98851.97;;;12.62;100.00
69257;BME280;56376;53.356;-1.748;2023-07-02T06:55:41;98845.97;;;12.60;100.00
69257;BME280;56376;53.356;-1.748;2023-07-02T06:58:07;98846.91;;;12.59;100.00
69257;BME280;56376;53.356;-1.748;2023-07-02T07:00:33;98852.91;;;12.61;100.00
69257;BME280;56376;53.356;-1.748;2023-07-02T07:03:05;98856.31;;;12.63;100.00
69257;BME280;56376;53.356;-1.748;2023-07-02T07:05:31;98851.91;;;12.63;100.00
69257;BME280;56376;53.356;-1.748;2023-07-02T07:07:57;98860.84;;;12.59;100.00
69257;BME280;56376;53.356;-1.748;2023-07-02T07:10:22;98855.78;;;12.56;100.00
69257;BME280;56376;53.356;-1.748;2023-07-02T07:12:48;98858.59;;;12.53;100.00
69257;BME280;56376;53.356;-1.748;2023-07-02T07:15:13;98858.59;;;12.53;100.00
69257;BME280;56376;53.356;-1.748;2023-07-02T07:17:41;98857.75;;;12.52;100.00
69257;BME280;56376;53.356;-1.748;2023-07-02T07:20:07;98863.06;;;12.51;100.00
69257;BME280;56376;53.356;-1.748;2023-07-02T07:22:33;98859.50;;;12.52;100.00
69257;BME280;56376;53.356;-1.748;2023-07-02T07:24:58;98865.44;;;12.55;100.00
69257;BME280;56376;53.356;-1.748;2023-07-02T07:27:24;98861.88;;;12.56;100.00
69257;BME280;56376;53.356;-1.748;2023-07-02T07:29:49;98860.38;;;12.52;100.00
69257;BME280;56376;53.356;-1.748;2023-07-02T07:32:14;98860.09;;;12.57;100.00
69257;BME280;56376;53.356;-1.748;2023-07-02T07:34:40;98876.81;;;12.54;100.00
69257;BME280;56376;53.356;-1.748;2023-07-02T07:37:05;98876.09;;;12.52;100.00
69257;BME280;56376;53.356;-1.748;2023-07-02T07:39:31;98869.97;;;12.52;100.00
69257;BME280;56376;53.356;-1.748;2023-07-02T07:41:56;98867.63;;;12.47;100.00
69257;BME280;56376;53.356;-1.748;2023-07-02T07:44:21;98870.16;;;12.49;100.00
69257;BME280;56376;53.356;-1.748;2023-07-02T07:46:47;98864.91;;;12.49;100.00
69257;BME280;56376;53.356;-1.748;2023-07-02T07:49:13;98871.94;;;12.48;100.00
69257;BME280;56376;53.356;-1.748;2023-07-02T07:51:38;98874.47;;;12.50;100.00
69257;BME280;56376;53.356;-1.748;2023-07-02T07:54:04;98875.38;;;12.49;100.00
69257;BME280;56376;53.356;-1.748;2023-07-02T07:56:29;98874.19;;;12.54;100.00
69257;BME280;56376;53.356;-1.748;2023-07-02T07:58:55;98872.28;;;12.58;100.00
69257;BME280;56376;53.356;-1.748;2023-07-02T08:01:20;98873.72;;;12.64;100.00
69257;BME280;56376;53.356;-1.748;2023-07-02T08:03:46;98876.25;;;12.65;100.00
69257;BME280;56376;53.356;-1.748;2023-07-02T08:06:11;98875.06;;;12.71;100.00
69257;BME280;56376;53.356;-1.748;2023-07-02T08:08:37;98879.19;;;12.75;100.00
69257;BME280;56376;53.356;-1.748;2023-07-02T08:11:02;98878.28;;;12.76;100.00
69257;BME280;56376;53.356;-1.748;2023-07-02T08:13:27;98882.56;;;12.77;100.00
69257;BME280;56376;53.356;-1.748;2023-07-02T08:15:53;98882.44;;;12.80;100.00
69257;BME280;56376;53.356;-1.748;2023-07-02T08:18:18;98869.47;;;12.77;100.00
69257;BME280;56376;53.356;-1.748;2023-07-02T08:20:44;98894.59;;;12.81;100.00
69257;BME280;56376;53.356;-1.748;2023-07-02T08:23:09;98899.81;;;12.81;100.00
69257;BME280;56376;53.356;-1.748;2023-07-02T08:25:35;98888.56;;;12.79;100.00
69257;BME280;56376;53.356;-1.748;2023-07-02T08:28:00;98882.44;;;12.80;100.00
69257;BME280;56376;53.356;-1.748;2023-07-02T08:30:25;98884.28;;;12.78;100.00
69257;BME280;56376;53.356;-1.748;2023-07-02T08:32:51;98884.94;;;12.82;100.00
69257;BME280;56376;53.356;-1.748;2023-07-02T08:35:19;98875.22;;;12.84;100.00
69257;BME280;56376;53.356;-1.748;2023-07-02T08:37:44;98888.25;;;12.85;100.00
69257;BME280;56376;53.356;-1.748;2023-07-02T08:40:19;98878.78;;;12.83;100.00
69257;BME280;56376;53.356;-1.748;2023-07-02T08:42:45;98884.28;;;12.78;100.00
69257;BME280;56376;53.356;-1.748;2023-07-02T08:45:14;98882.81;;;12.72;100.00
69257;BME280;56376;53.356;-1.748;2023-07-02T08:47:41;98884.41;;;12.75;100.00
69257;BME280;56376;53.356;-1.748;2023-07-02T08:50:07;98875.91;;;12.71;100.00
69257;BME280;56376;53.356;-1.748;2023-07-02T08:52:33;98868.13;;;12.70;100.00
69257;BME280;56376;53.356;-1.748;2023-07-02T08:54:58;98874.72;;;12.77;100.00
69257;BME280;56376;53.356;-1.748;2023-07-02T08:57:23;98866.41;;;12.85;100.00
69257;BME280;56376;53.356;-1.748;2023-07-02T08:59:49;98866.75;;;12.94;100.00
69257;BME280;56376;53.356;-1.748;2023-07-02T09:02:16;98869.13;;;12.99;100.00
69257;BME280;56376;53.356;-1.748;2023-07-02T09:04:42;98872.91;;;13.09;100.00
69257;BME280;56376;53.356;-1.748;2023-07-02T09:07:09;98869.06;;;13.15;100.00
69257;BME280;56376;53.356;-1.748;2023-07-02T09:09:48;98864.59;;;13.17;100.00
69257;BME280;56376;53.356;-1.748;2023-07-02T09:12:27;98868.94;;;13.18;100.00
69257;BME280;56376;53.356;-1.748;2023-07-02T09:15:04;98880.06;;;13.21;100.00
69257;BME280;56376;53.356;-1.748;2023-07-02T09:17:33;98869.84;;;13.17;100.00
69257;BME280;56376;53.356;-1.748;2023-07-02T09:20:00;98871.53;;;13.18;100.00
69257;BME280;56376;53.356;-1.748;2023-07-02T09:22:26;98875.84;;;13.19;100.00
69257;BME280;56376;53.356;-1.748;2023-07-02T09:24:57;98864.34;;;13.21;100.00
69257;BME280;56376;53.356;-1.748;2023-07-02T09:27:37;98873.81;;;13.24;100.00
69257;BME280;56376;53.356;-1.748;2023-07-02T09:30:10;98868.22;;;13.30;100.00
69257;BME280;56376;53.356;-1.748;2023-07-02T09:32:37;98864.56;;;13.33;100.00
69257;BME280;56376;53.356;-1.748;2023-07-02T09:35:03;98858.22;;;13.37;100.00
69257;BME280;56376;53.356;-1.748;2023-07-02T09:37:30;98869.22;;;13.44;100.00
69257;BME280;56376;53.356;-1.748;2023-07-02T09:39:56;98862.00;;;13.47;100.00
69257;BME280;56376;53.356;-1.748;2023-07-02T09:42:22;98868.09;;;13.48;100.00
69257;BME280;56376;53.356;-1.748;2023-07-02T09:44:48;98861.16;;;13.47;100.00
69257;BME280;56376;53.356;-1.748;2023-07-02T09:47:18;98862.94;;;13.46;100.00
69257;BME280;56376;53.356;-1.748;2023-07-02T09:50:16;98863.97;;;13.44;100.00
69257;BME280;56376;53.356;-1.748;2023-07-02T09:52:44;98871.09;;;13.41;100.00
69257;BME280;56376;53.356;-1.748;2023-07-02T09:55:11;98896.81;;;13.35;100.00
69257;BME280;56376;53.356;-1.748;2023-07-02T09:57:37;98886.75;;;13.27;100.00
69257;BME280;56376;53.356;-1.748;2023-07-02T10:00:03;98879.66;;;13.29;100.00
69257;BME280;56376;53.356;-1.748;2023-07-02T10:02:30;98873.66;;;13.27;100.00
69257;BME280;56376;53.356;-1.748;2023-07-02T10:04:55;98862.25;;;13.28;99.54
69257;BME280;56376;53.356;-1.748;2023-07-02T10:07:29;98871.59;;;13.32;96.52
69257;BME280;56376;53.356;-1.748;2023-07-02T10:09:55;98869.47;;;13.39;97.84
69257;BME280;56376;53.356;-1.748;2023-07-02T10:12:24;98874.28;;;13.47;98.01
69257;BME280;56376;53.356;-1.748;2023-07-02T10:14:57;98880.03;;;13.53;99.55
69257;BME280;56376;53.356;-1.748;2023-07-02T10:17:31;98876.19;;;13.59;99.83
69257;BME280;56376;53.356;-1.748;2023-07-02T10:19:58;98877.78;;;13.61;99.78
69257;BME280;56376;53.356;-1.748;2023-07-02T10:22:24;98873.09;;;13.67;99.51
69257;BME280;56376;53.356;-1.748;2023-07-02T10:24:51;98875.28;;;13.74;99.16
69257;BME280;56376;53.356;-1.748;2023-07-02T10:27:17;98870.50;;;13.81;97.55
69257;BME280;56376;53.356;-1.748;2023-07-02T10:29:49;98855.50;;;13.83;95.54
69257;BME280;56376;53.356;-1.748;2023-07-02T10:32:26;98854.31;;;13.89;95.70
69257;BME280;56376;53.356;-1.748;2023-07-02T10:34:51;98852.25;;;13.94;95.66
69257;BME280;56376;53.356;-1.748;2023-07-02T10:37:17;98859.72;;;14.00;96.09
69257;BME280;56376;53.356;-1.748;2023-07-02T10:39:42;98858.69;;;14.02;93.57
69257;BME280;56376;53.356;-1.748;2023-07-02T10:42:09;98852.50;;;14.03;92.83
69257;BME280;56376;53.356;-1.748;2023-07-02T10:44:46;98862.09;;;14.04;90.96
69257;BME280;56376;53.356;-1.748;2023-07-02T10:47:11;98864.50;;;14.07;91.03
69257;BME280;56376;53.356;-1.748;2023-07-02T10:49:37;98865.34;;;14.08;91.50
69257;BME280;56376;53.356;-1.748;2023-07-02T10:52:03;98873.22;;;14.08;88.56
69257;BME280;56376;53.356;-1.748;2023-07-02T10:54:43;98868.94;;;14.07;88.33
69257;BME280;56376;53.356;-1.748;2023-07-02T10:57:10;98874.94;;;14.09;91.11
69257;BME280;56376;53.356;-1.748;2023-07-02T10:59:37;98864.88;;;14.16;89.27
69257;BME280;56376;53.356;-1.748;2023-07-02T11:02:02;98888.63;;;14.14;91.41
69257;BME280;56376;53.356;-1.748;2023-07-02T11:04:32;98881.66;;;14.13;91.70
69257;BME280;56376;53.356;-1.748;2023-07-02T11:06:59;98888.81;;;14.11;92.78
69257;BME280;56376;53.356;-1.748;2023-07-02T11:09:24;98887.88;;;14.12;92.25
69257;BME280;56376;53.356;-1.748;2023-07-02T11:11:55;98891.53;;;14.10;91.71
69257;BME280;56376;53.356;-1.748;2023-07-02T11:14:31;98884.50;;;14.10;90.70
69257;BME280;56376;53.356;-1.748;2023-07-02T11:16:58;98884.28;;;14.13;91.48
69257;BME280;56376;53.356;-1.748;2023-07-02T11:19:25;98874.66;;;14.14;89.93
69257;BME280;56376;53.356;-1.748;2023-07-02T11:21:52;98884.97;;;14.17;89.64
69257;BME280;56376;53.356;-1.748;2023-07-02T11:24:28;98871.84;;;14.17;86.60
69257;BME280;56376;53.356;-1.748;2023-07-02T11:26:54;98882.22;;;14.18;85.68
69257;BME280;56376;53.356;-1.748;2023-07-02T11:29:20;98886.44;;;14.21;85.60
69257;BME280;56376;53.356;-1.748;2023-07-02T11:31:46;98875.66;;;14.25;85.34
69257;BME280;56376;53.356;-1.748;2023-07-02T11:34:22;98883.81;;;14.35;85.62
69257;BME280;56376;53.356;-1.748;2023-07-02T11:36:47;98875.59;;;14.41;86.13
69257;BME280;56376;53.356;-1.748;2023-07-02T11:39:13;98874.34;;;14.47;84.94
69257;BME280;56376;53.356;-1.748;2023-07-02T11:41:42;98876.69;;;14.52;84.78
69257;BME280;56376;53.356;-1.748;2023-07-02T11:44:08;98874.06;;;14.52;85.53
69257;BME280;56376;53.356;-1.748;2023-07-02T11:46:34;98874.97;;;14.50;86.97
69257;BME280;56376;53.356;-1.748;2023-07-02T11:49:00;98872.34;;;14.50;87.08
69257;BME280;56376;53.356;-1.748;2023-07-02T11:51:26;98871.53;;;14.50;87.69
69257;BME280;56376;53.356;-1.748;2023-07-02T11:53:51;98869.09;;;14.47;87.91
69257;BME280;56376;53.356;-1.748;2023-07-02T11:56:17;98867.59;;;14.43;88.10
69257;BME280;56376;53.356;-1.748;2023-07-02T11:58:42;98877.19;;;14.44;89.62
69257;BME280;56376;53.356;-1.748;2023-07-02T12:01:08;98865.50;;;14.48;89.74
69257;BME280;56376;53.356;-1.748;2023-07-02T12:03:33;98861.75;;;14.52;88.49
69257;BME280;56376;53.356;-1.748;2023-07-02T12:05:59;98870.31;;;14.56;87.35
69257;BME280;56376;53.356;-1.748;2023-07-02T12:08:24;98855.09;;;14.61;88.51
69257;BME280;56376;53.356;-1.748;2023-07-02T12:10:50;98850.09;;;14.70;88.15
69257;BME280;56376;53.356;-1.748;2023-07-02T12:13:15;98845.19;;;14.79;87.42
69257;BME280;56376;53.356;-1.748;2023-07-02T12:15:41;98839.63;;;14.83;87.16
69257;BME280;56376;53.356;-1.748;2023-07-02T12:18:07;98856.78;;;14.89;86.22
69257;BME280;56376;53.356;-1.748;2023-07-02T12:20:33;98848.91;;;14.89;85.09
69257;BME280;56376;53.356;-1.748;2023-07-02T12:22:58;98853.53;;;14.85;84.34
69257;BME280;56376;53.356;-1.748;2023-07-02T12:25:23;98858.03;;;14.83;84.54
69257;BME280;56376;53.356;-1.748;2023-07-02T12:27:49;98872.97;;;14.83;83.71
69257;BME280;56376;53.356;-1.748;2023-07-02T12:30:14;98854.50;;;14.84;83.38
69257;BME280;56376;53.356;-1.748;2023-07-02T12:32:44;98856.78;;;14.89;83.55
69257;BME280;56376;53.356;-1.748;2023-07-02T12:35:09;98857.47;;;14.92;79.74
69257;BME280;56376;53.356;-1.748;2023-07-02T12:37:35;98853.63;;;14.84;80.43
69257;BME280;56376;53.356;-1.748;2023-07-02T12:40:00;98858.72;;;14.87;81.05